Time;durP1;ratioP1;P1;durP2;ratioP2;P2;SDS_P1;SDS_P2;PMS_P1;PMS_P2;Temp;Humidity;BMP_temperature;BMP_pressure;BME280_temperature;BME280_humidity;BME280_pressure;Samples;Min_cycle;Max_cycle;Signal;HPM_P1;HPM_P2
2023/09/08 00:02:03;;;;;;;0.10;0.10;;;20.50;99.90;;;;;;4983018;28;20216;-83
2023/09/08 00:04:29;;;;;;;0.10;0.10;;;20.50;99.90;;;;;;4983634;28;20203;-83
2023/09/08 00:06:54;;;;;;;0.10;0.10;;;20.40;99.90;;;;;;4989918;28;20188;-82
2023/09/08 00:09:20;;;;;;;0.10;0.10;;;20.40;99.90;;;;;;4983804;28;21027;-82
2023/09/08 00:11:45;;;;;;;0.10;0.10;;;20.40;99.90;;;;;;4983710;28;20211;-82
2023/09/08 00:14:11;;;;;;;0.10;0.10;;;20.40;99.90;;;;;;4999381;28;20555;-82
2023/09/08 00:16:39;;;;;;;0.10;0.10;;;20.40;99.90;;;;;;4983595;28;20214;-82
2023/09/08 00:19:04;;;;;;;0.10;0.10;;;20.30;99.90;;;;;;4990429;28;20184;-82
2023/09/08 00:21:30;;;;;;;0.10;0.10;;;20.30;99.90;;;;;;4990158;28;20282;-82
2023/09/08 00:23:56;;;;;;;0.10;0.10;;;20.30;99.90;;;;;;4983454;28;20737;-83
2023/09/08 00:26:22;;;;;;;0.10;0.10;;;20.40;99.90;;;;;;4983021;28;20216;-82
2023/09/08 00:28:48;;;;;;;0.10;0.10;;;20.30;99.90;;;;;;4983558;28;20175;-82
2023/09/08 00:31:13;;;;;;;0.10;0.10;;;20.30;99.90;;;;;;4983704;28;20195;-82
2023/09/08 00:33:40;;;;;;;0.10;0.10;;;20.30;99.90;;;;;;4999161;28;20210;-82
2023/09/08 00:36:06;;;;;;;0.10;0.10;;;20.20;99.90;;;;;;4983283;28;20703;-83
2023/09/08 00:38:31;;;;;;;0.10;0.10;;;20.10;99.90;;;;;;4982755;28;20199;-82
2023/09/08 00:40:58;;;;;;;0.10;0.10;;;20.00;99.90;;;;;;4981953;28;20219;-82
2023/09/08 00:43:24;;;;;;;0.10;0.10;;;19.90;99.90;;;;;;4983881;28;20204;-83
2023/09/08 00:45:50;;;;;;;0.10;0.10;;;19.90;99.90;;;;;;4989571;28;20266;-81
2023/09/08 00:48:15;;;;;;;0.10;0.10;;;19.90;99.90;;;;;;4988021;28;20693;-82
2023/09/08 00:50:41;;;;;;;0.10;0.10;;;19.90;99.90;;;;;;4980600;28;20184;-82
2023/09/08 00:53:07;;;;;;;0.10;0.10;;;19.90;99.90;;;;;;4980770;28;20215;-82
2023/09/08 00:55:33;;;;;;;0.10;0.10;;;19.90;99.90;;;;;;4999943;28;20181;-83
2023/09/08 00:58:00;;;;;;;0.10;0.10;;;19.90;99.90;;;;;;4985109;28;20200;-83
2023/09/08 01:00:26;;;;;;;0.10;0.10;;;19.80;99.90;;;;;;4991291;28;20192;-82
2023/09/08 01:02:52;;;;;;;0.10;0.10;;;19.80;99.90;;;;;;4984087;28;20570;-82
2023/09/08 01:05:18;;;;;;;0.10;0.10;;;19.80;99.90;;;;;;4990983;28;20200;-82
2023/09/08 01:07:45;;;;;;;0.10;0.10;;;19.80;99.90;;;;;;4981460;28;20184;-82
2023/09/08 01:10:11;;;;;;;0.10;0.10;;;19.90;99.90;;;;;;4987938;28;20195;-82
2023/09/08 01:12:37;;;;;;;0.10;0.10;;;19.90;99.90;;;;;;4994706;28;20204;-82
2023/09/08 01:15:04;;;;;;;0.10;0.10;;;19.90;99.90;;;;;;4996595;28;20196;-81
2023/09/08 01:17:30;;;;;;;0.10;0.10;;;19.90;99.90;;;;;;4988252;28;20188;-82
2023/09/08 01:19:58;;;;;;;0.10;0.10;;;20.00;99.90;;;;;;4982281;28;20191;-82
2023/09/08 01:22:39;;;;;;;0.10;0.10;;;19.90;99.90;;;;;;4986766;28;20767;-82
2023/09/08 01:25:25;;;;;;;0.10;0.10;;;19.80;99.90;;;;;;4988071;28;20199;-81
2023/09/08 01:27:52;;;;;;;0.10;0.10;;;19.60;99.90;;;;;;4988598;28;20180;-82
2023/09/08 01:30:19;;;;;;;0.10;0.10;;;19.50;99.90;;;;;;4987085;28;20189;-82
2023/09/08 01:32:45;;;;;;;0.10;0.10;;;19.40;99.90;;;;;;4996964;28;20208;-82
2023/09/08 01:35:11;;;;;;;0.10;0.10;;;19.30;99.90;;;;;;4982213;28;20212;-82
2023/09/08 01:37:46;;;;;;;0.10;0.10;;;19.30;99.90;;;;;;4980951;28;20223;-81
2023/09/08 01:40:13;;;;;;;0.10;0.10;;;19.20;99.90;;;;;;4988072;28;20786;-82
2023/09/08 01:42:39;;;;;;;0.10;0.10;;;19.20;99.90;;;;;;4987090;28;20303;-82
2023/09/08 01:45:05;;;;;;;0.10;0.10;;;19.00;99.90;;;;;;4980779;28;20840;-82
2023/09/08 01:47:31;;;;;;;0.10;0.10;;;19.00;99.90;;;;;;4988501;28;20176;-82
2023/09/08 01:49:56;;;;;;;0.10;0.10;;;19.00;99.90;;;;;;4987779;28;20180;-82
2023/09/08 01:52:22;;;;;;;0.10;0.10;;;19.00;99.90;;;;;;4979774;28;20200;-82
2023/09/08 01:54:48;;;;;;;0.10;0.10;;;19.00;99.90;;;;;;4980910;28;20677;-82
2023/09/08 01:57:13;;;;;;;0.10;0.10;;;18.90;99.90;;;;;;4981627;28;20195;-81
2023/09/08 01:59:39;;;;;;;0.10;0.10;;;18.90;99.90;;;;;;4987370;28;20203;-82
2023/09/08 02:02:05;;;;;;;0.10;0.10;;;18.90;99.90;;;;;;4980032;28;20221;-82
2023/09/08 02:04:30;;;;;;;0.10;0.10;;;18.90;99.90;;;;;;4980083;28;20199;-82
2023/09/08 02:06:56;;;;;;;0.10;0.10;;;18.80;99.90;;;;;;4981264;28;20223;-82
2023/09/08 02:09:22;;;;;;;0.10;0.10;;;18.50;99.90;;;;;;4988346;28;20254;-81
2023/09/08 02:11:47;;;;;;;0.10;0.10;;;18.50;99.90;;;;;;4980841;28;20196;-82
2023/09/08 02:14:13;;;;;;;0.10;0.10;;;18.60;99.90;;;;;;4982625;28;20176;-82
2023/09/08 02:16:39;;;;;;;0.10;0.10;;;18.60;99.90;;;;;;4985397;28;20297;-82
2023/09/08 02:19:05;;;;;;;0.10;0.10;;;18.60;99.90;;;;;;4981740;28;20207;-82
2023/09/08 02:21:30;;;;;;;0.10;0.10;;;18.40;99.90;;;;;;4981557;28;20726;-82
2023/09/08 02:23:56;;;;;;;0.10;0.10;;;18.30;99.90;;;;;;4993638;28;20674;-81
2023/09/08 02:26:21;;;;;;;0.10;0.10;;;18.20;99.90;;;;;;4995541;28;20958;-82
2023/09/08 02:28:47;;;;;;;0.10;0.10;;;18.10;99.90;;;;;;4979224;28;20184;-82
2023/09/08 02:31:12;;;;;;;0.10;0.10;;;18.20;99.90;;;;;;4987483;28;20180;-81
2023/09/08 02:33:38;;;;;;;0.10;0.10;;;18.30;99.90;;;;;;4987221;28;20698;-82
2023/09/08 02:36:06;;;;;;;0.10;0.10;;;18.40;99.90;;;;;;4979057;28;20184;-82
2023/09/08 02:38:32;;;;;;;0.10;0.10;;;18.40;99.90;;;;;;4979795;28;20195;-82
2023/09/08 02:40:58;;;;;;;0.10;0.10;;;18.40;99.90;;;;;;4975582;28;20183;-82
2023/09/08 02:43:24;;;;;;;0.10;0.10;;;18.40;99.90;;;;;;4985816;28;20211;-82
2023/09/08 02:45:49;;;;;;;0.10;0.10;;;18.30;99.90;;;;;;4979110;28;20293;-82
2023/09/08 02:48:16;;;;;;;0.10;0.10;;;18.20;99.90;;;;;;4977677;28;20182;-82
2023/09/08 02:50:42;;;;;;;0.10;0.10;;;18.20;99.90;;;;;;4983993;28;20271;-82
2023/09/08 02:53:07;;;;;;;0.10;0.10;;;18.30;99.90;;;;;;4984974;28;20338;-81
2023/09/08 02:55:33;;;;;;;0.10;0.10;;;18.30;99.90;;;;;;4985810;28;20188;-82
2023/09/08 02:57:58;;;;;;;0.10;0.10;;;18.30;99.90;;;;;;4974380;28;20195;-82
2023/09/08 03:00:24;;;;;;;0.10;0.10;;;18.30;99.90;;;;;;4984422;28;20191;-81
2023/09/08 03:02:50;;;;;;;0.10;0.10;;;18.30;99.90;;;;;;4984409;28;20282;-82
2023/09/08 03:05:15;;;;;;;0.10;0.10;;;18.20;99.90;;;;;;4979902;28;20302;-82
2023/09/08 03:07:41;;;;;;;0.10;0.10;;;18.20;99.90;;;;;;4986230;28;20184;-81
2023/09/08 03:10:07;;;;;;;0.10;0.10;;;18.20;99.90;;;;;;4979307;28;20191;-82
2023/09/08 03:12:32;;;;;;;0.10;0.10;;;18.10;99.90;;;;;;4995652;28;20217;-82
2023/09/08 03:14:58;;;;;;;0.10;0.10;;;18.10;99.90;;;;;;4986685;28;20200;-82
2023/09/08 03:17:23;;;;;;;0.10;0.10;;;18.10;99.90;;;;;;4993210;28;20375;-82
2023/09/08 03:19:49;;;;;;;0.10;0.10;;;18.00;99.90;;;;;;4994729;28;20188;-82
2023/09/08 03:22:15;;;;;;;0.10;0.10;;;18.10;99.90;;;;;;4979407;28;20203;-82
2023/09/08 03:24:40;;;;;;;0.10;0.10;;;18.00;99.90;;;;;;4985610;28;20211;-82
2023/09/08 03:27:06;;;;;;;0.10;0.10;;;17.90;99.90;;;;;;4987034;28;20573;-82
2023/09/08 03:29:31;;;;;;;0.10;0.10;;;17.90;99.90;;;;;;4979867;28;20271;-82
2023/09/08 03:31:56;;;;;;;0.10;0.10;;;17.90;99.90;;;;;;4979487;28;20196;-82
2023/09/08 03:34:22;;;;;;;0.10;0.10;;;17.90;99.90;;;;;;4986530;28;20190;-82
2023/09/08 03:36:49;;;;;;;0.10;0.10;;;17.90;99.90;;;;;;4989613;28;20181;-82
2023/09/08 03:39:14;;;;;;;0.10;0.10;;;17.90;99.90;;;;;;4989153;28;20207;-81
2023/09/08 03:41:40;;;;;;;0.10;0.10;;;17.90;99.90;;;;;;4990759;28;20285;-82
2023/09/08 03:44:06;;;;;;;0.10;0.10;;;17.90;99.90;;;;;;4989836;28;20202;-81
2023/09/08 03:46:31;;;;;;;0.30;0.30;;;17.80;99.90;;;;;;4985053;28;20245;-82
2023/09/08 03:49:00;;;;;;;0.10;0.10;;;17.80;99.90;;;;;;4989769;28;20204;-82
2023/09/08 03:51:27;;;;;;;0.10;0.10;;;17.70;99.90;;;;;;4982936;28;20174;-81
2023/09/08 03:53:53;;;;;;;0.10;0.10;;;17.80;99.90;;;;;;4990188;28;20205;-82
2023/09/08 03:56:20;;;;;;;0.10;0.10;;;17.80;99.90;;;;;;4990444;28;20266;-81
2023/09/08 03:58:46;;;;;;;0.10;0.10;;;17.80;99.90;;;;;;4992205;28;20172;-81
2023/09/08 04:01:11;;;;;;;0.10;0.10;;;17.80;99.90;;;;;;4990480;28;20188;-82
2023/09/08 04:03:37;;;;;;;0.10;0.10;;;17.80;99.90;;;;;;4989576;28;20241;-82
2023/09/08 04:06:02;;;;;;;0.10;0.10;;;17.70;99.90;;;;;;4984520;28;20693;-82
2023/09/08 04:08:28;;;;;;;0.10;0.10;;;17.70;99.90;;;;;;4991834;28;20263;-81
2023/09/08 04:10:53;;;;;;;0.10;0.10;;;17.70;99.90;;;;;;4989135;28;20185;-81
2023/09/08 04:13:18;;;;;;;0.10;0.10;;;17.70;99.90;;;;;;4984147;28;20252;-81
2023/09/08 04:15:44;;;;;;;0.10;0.10;;;17.70;99.90;;;;;;4989635;28;20666;-81
2023/09/08 04:18:09;;;;;;;0.10;0.10;;;17.60;99.90;;;;;;4981615;28;20189;-81
2023/09/08 04:20:35;;;;;;;0.10;0.10;;;17.60;99.90;;;;;;4992028;28;20175;-80
2023/09/08 04:23:00;;;;;;;0.10;0.10;;;17.60;99.90;;;;;;4987154;28;20232;-81
2023/09/08 04:25:26;;;;;;;0.10;0.10;;;17.60;99.90;;;;;;4985554;28;21177;-80
2023/09/08 04:27:51;;;;;;;0.10;0.10;;;17.60;99.90;;;;;;4985361;28;20229;-81
2023/09/08 04:30:18;;;;;;;0.10;0.10;;;17.60;99.90;;;;;;4993777;28;20211;-80
2023/09/08 04:32:43;;;;;;;0.10;0.10;;;17.50;99.90;;;;;;4993130;28;20229;-81
2023/09/08 04:35:09;;;;;;;0.10;0.10;;;17.60;99.90;;;;;;4994282;28;20178;-81
2023/09/08 04:37:36;;;;;;;0.10;0.10;;;17.60;99.90;;;;;;4987965;28;20682;-81
2023/09/08 04:40:02;;;;;;;0.10;0.10;;;17.60;99.90;;;;;;5000804;28;21136;-81
2023/09/08 04:42:29;;;;;;;0.10;0.10;;;17.60;99.90;;;;;;4983957;28;20245;-80
2023/09/08 04:44:54;;;;;;;0.10;0.10;;;17.50;99.90;;;;;;4985105;28;20684;-80
2023/09/08 04:47:20;;;;;;;0.10;0.10;;;17.50;99.90;;;;;;4986395;28;20226;-81
2023/09/08 04:49:46;;;;;;;0.10;0.10;;;17.50;99.90;;;;;;4997507;28;20197;-81
2023/09/08 04:52:11;;;;;;;0.10;0.10;;;17.40;99.90;;;;;;4988334;28;20267;-81
2023/09/08 04:54:37;;;;;;;0.10;0.10;;;17.40;99.90;;;;;;4992621;28;20185;-81
2023/09/08 04:57:03;;;;;;;0.10;0.10;;;17.40;99.90;;;;;;4991218;28;20204;-84
2023/09/08 04:59:28;;;;;;;0.10;0.10;;;17.40;99.90;;;;;;4997100;28;20295;-83
2023/09/08 05:01:54;;;;;;;0.10;0.10;;;17.40;99.90;;;;;;4988875;28;20214;-83
2023/09/08 05:04:20;;;;;;;0.10;0.10;;;17.40;99.90;;;;;;4991372;28;20187;-83
2023/09/08 05:06:45;;;;;;;0.10;0.10;;;17.40;99.90;;;;;;4989873;28;20254;-83
2023/09/08 05:09:11;;;;;;;0.10;0.10;;;17.50;99.90;;;;;;4988325;28;20679;-84
2023/09/08 05:11:37;;;;;;;0.10;0.10;;;17.50;99.90;;;;;;4982677;28;20190;-83
2023/09/08 05:14:02;;;;;;;0.10;0.10;;;17.50;99.90;;;;;;4989948;28;20195;-83
2023/09/08 05:16:39;;;;;;;0.10;0.10;;;17.50;99.90;;;;;;4991407;28;20185;-83
2023/09/08 05:19:05;;;;;;;0.10;0.10;;;17.50;99.90;;;;;;4993349;28;20180;-84
2023/09/08 05:21:32;;;;;;;0.10;0.10;;;17.40;99.90;;;;;;4992988;28;20693;-83
2023/09/08 05:23:57;;;;;;;0.10;0.10;;;17.40;99.90;;;;;;4984178;28;20267;-83
2023/09/08 05:26:23;;;;;;;0.10;0.10;;;17.30;99.90;;;;;;4982480;28;20363;-83
2023/09/08 05:28:48;;;;;;;0.10;0.10;;;17.30;99.90;;;;;;4983906;28;20180;-84
2023/09/08 05:31:14;;;;;;;0.10;0.10;;;17.20;99.90;;;;;;4990706;28;20642;-83
2023/09/08 05:33:39;;;;;;;0.10;0.10;;;17.30;99.90;;;;;;4991657;28;20839;-84
2023/09/08 05:36:05;;;;;;;0.10;0.10;;;17.40;99.90;;;;;;4980499;28;20238;-80
2023/09/08 05:38:30;;;;;;;0.10;0.10;;;17.40;99.90;;;;;;4979905;28;20524;-79
2023/09/08 05:40:56;;;;;;;0.10;0.10;;;17.50;99.90;;;;;;4981051;28;20282;-80
2023/09/08 05:43:24;;;;;;;0.10;0.10;;;17.70;99.90;;;;;;4981105;28;20216;-80
2023/09/08 05:45:50;;;;;;;0.10;0.10;;;17.90;99.90;;;;;;4988258;28;20217;-79
2023/09/08 05:48:16;;;;;;;0.10;0.10;;;17.80;99.90;;;;;;4988154;28;21230;-80
2023/09/08 05:50:42;;;;;;;0.10;0.10;;;17.80;99.90;;;;;;4981692;28;20185;-81
2023/09/08 05:53:07;;;;;;;0.10;0.10;;;17.90;99.90;;;;;;4981118;28;20198;-80
2023/09/08 05:55:33;;;;;;;0.10;0.10;;;17.80;99.90;;;;;;4980499;28;20215;-80
2023/09/08 05:57:58;;;;;;;0.10;0.10;;;17.80;99.90;;;;;;4980729;28;20283;-80
2023/09/08 06:00:24;;;;;;;0.10;0.10;;;17.80;99.90;;;;;;4981569;28;20198;-79
2023/09/08 06:02:49;;;;;;;0.10;0.10;;;17.90;99.90;;;;;;4980756;28;20215;-79
2023/09/08 06:05:15;;;;;;;0.10;0.10;;;18.00;99.90;;;;;;4981006;28;20214;-79
2023/09/08 06:07:40;;;;;;;0.10;0.10;;;18.10;99.90;;;;;;4980381;28;20187;-79
2023/09/08 06:10:06;;;;;;;0.10;0.10;;;18.30;99.90;;;;;;4980651;28;20185;-79
2023/09/08 06:12:31;;;;;;;0.10;0.10;;;18.50;99.90;;;;;;4979896;28;21178;-79
2023/09/08 06:14:57;;;;;;;0.10;0.10;;;18.80;99.90;;;;;;4980372;28;20207;-80
2023/09/08 06:17:22;;;;;;;0.10;0.10;;;19.10;99.90;;;;;;4980269;28;20277;-79
2023/09/08 06:19:48;;;;;;;0.10;0.10;;;19.30;99.90;;;;;;4987058;28;20219;-80
2023/09/08 06:22:13;;;;;;;0.10;0.10;;;19.40;99.90;;;;;;4980718;28;20231;-80
2023/09/08 06:24:40;;;;;;;0.10;0.10;;;19.60;99.90;;;;;;4980604;28;20219;-80
2023/09/08 06:27:06;;;;;;;0.10;0.10;;;19.80;99.90;;;;;;4979680;28;20197;-80
2023/09/08 06:29:32;;;;;;;0.10;0.10;;;19.90;99.90;;;;;;4978568;28;20191;-80
2023/09/08 06:31:58;;;;;;;0.10;0.10;;;20.00;99.90;;;;;;4978878;28;20212;-80
2023/09/08 06:34:24;;;;;;;0.10;0.10;;;20.30;99.90;;;;;;4981289;28;20267;-80
2023/09/08 06:36:49;;;;;;;0.10;0.10;;;20.40;99.90;;;;;;4987629;28;20271;-79
2023/09/08 06:39:15;;;;;;;0.10;0.10;;;20.60;99.90;;;;;;4978119;28;20199;-80
2023/09/08 06:41:40;;;;;;;0.10;0.10;;;20.80;99.90;;;;;;4968830;28;20191;-80
2023/09/08 06:44:06;;;;;;;0.10;0.10;;;21.00;99.90;;;;;;4975953;28;21180;-80
2023/09/08 06:46:32;;;;;;;0.10;0.10;;;20.90;99.90;;;;;;4977184;28;20203;-79
2023/09/08 06:48:58;;;;;;;0.10;0.10;;;21.10;99.90;;;;;;4979467;28;20193;-80
2023/09/08 06:51:23;;;;;;;0.10;0.10;;;21.10;99.90;;;;;;4978328;28;20647;-80
2023/09/08 06:53:56;;;;;;;0.10;0.10;;;21.20;99.90;;;;;;4977356;28;20204;-80
2023/09/08 06:56:22;;;;;;;0.10;0.10;;;21.20;99.90;;;;;;4979772;28;20537;-80
2023/09/08 06:58:47;;;;;;;0.10;0.10;;;21.50;99.90;;;;;;4977965;28;20195;-79
2023/09/08 07:01:13;;;;;;;0.10;0.10;;;21.50;99.90;;;;;;4978286;28;20245;-79
2023/09/08 07:03:38;;;;;;;0.10;0.10;;;21.60;99.90;;;;;;4977037;28;20667;-80
2023/09/08 07:06:04;;;;;;;0.10;0.10;;;21.80;99.90;;;;;;4988486;28;20254;-82
2023/09/08 07:08:29;;;;;;;0.10;0.10;;;21.80;99.90;;;;;;4985168;28;20247;-81
2023/09/08 07:10:55;;;;;;;0.10;0.10;;;21.80;99.90;;;;;;4983077;28;20278;-81
2023/09/08 07:13:21;;;;;;;0.10;0.10;;;22.10;99.90;;;;;;4982343;28;20211;-81
2023/09/08 07:15:46;;;;;;;0.10;0.10;;;22.00;99.90;;;;;;4983055;28;20188;-81
2023/09/08 07:18:11;;;;;;;0.10;0.10;;;22.20;99.90;;;;;;4984019;28;20227;-81
2023/09/08 07:20:37;;;;;;;0.10;0.10;;;22.30;99.90;;;;;;4989070;28;20183;-81
2023/09/08 07:23:03;;;;;;;0.10;0.10;;;22.50;99.90;;;;;;4976622;28;20295;-84
2023/09/08 07:25:28;;;;;;;0.10;0.10;;;22.40;99.90;;;;;;4979420;28;20725;-84
2023/09/08 07:27:54;;;;;;;0.10;0.10;;;22.60;99.90;;;;;;4985041;28;20982;-83
2023/09/08 07:30:20;;;;;;;3.60;3.40;;;22.90;99.90;;;;;;4988199;28;20956;-82
2023/09/08 07:32:46;;;;;;;0.10;0.10;;;22.80;99.90;;;;;;4983896;28;20204;-81
2023/09/08 07:35:14;;;;;;;0.20;0.20;;;22.70;99.90;;;;;;4986089;28;20603;-82
2023/09/08 07:37:40;;;;;;;0.10;0.10;;;22.90;99.90;;;;;;4982049;28;20212;-81
2023/09/08 07:40:09;;;;;;;0.10;0.10;;;23.30;99.90;;;;;;4979961;28;20195;-80
2023/09/08 07:42:35;;;;;;;0.10;0.10;;;23.20;99.90;;;;;;4977887;28;20234;-80
2023/09/08 07:45:00;;;;;;;0.10;0.10;;;23.40;99.90;;;;;;4979974;28;20207;-80
2023/09/08 07:47:26;;;;;;;0.10;0.10;;;23.10;99.90;;;;;;4981183;28;20192;-80
2023/09/08 07:49:51;;;;;;;2.67;2.47;;;22.80;99.90;;;;;;4982673;28;20204;-80
2023/09/08 07:52:17;;;;;;;0.10;0.10;;;23.30;99.90;;;;;;4978568;28;20200;-80
2023/09/08 07:54:42;;;;;;;0.10;0.10;;;23.40;99.90;;;;;;4980254;28;20183;-83
2023/09/08 07:57:08;;;;;;;0.10;0.10;;;23.30;99.90;;;;;;4983336;28;20196;-82
2023/09/08 07:59:34;;;;;;;0.10;0.10;;;23.60;99.90;;;;;;4983074;28;21204;-81
2023/09/08 08:02:01;;;;;;;0.10;0.10;;;23.60;99.90;;;;;;4976658;28;20212;-80
2023/09/08 08:04:27;;;;;;;1.30;1.30;;;24.00;99.90;;;;;;4977613;28;20273;-80
2023/09/08 08:06:52;;;;;;;0.10;0.10;;;24.10;99.90;;;;;;4977896;28;20263;-80
2023/09/08 08:09:18;;;;;;;0.10;0.10;;;24.10;99.90;;;;;;4979482;28;20219;-82
2023/09/08 08:11:43;;;;;;;0.10;0.10;;;23.80;99.90;;;;;;4979031;28;20203;-82
2023/09/08 08:14:09;;;;;;;0.10;0.10;;;24.00;99.90;;;;;;4986377;28;20188;-81
2023/09/08 08:16:35;;;;;;;0.10;0.10;;;24.40;99.90;;;;;;4987546;28;20192;-82
2023/09/08 08:19:01;;;;;;;0.10;0.10;;;24.70;99.90;;;;;;4982427;28;20218;-81
2023/09/08 08:21:26;;;;;;;0.10;0.10;;;24.60;99.90;;;;;;4977968;28;20303;-82
2023/09/08 08:23:52;;;;;;;0.10;0.10;;;25.00;99.90;;;;;;4987889;28;20207;-82
2023/09/08 08:26:18;;;;;;;0.10;0.10;;;25.10;99.90;;;;;;4982706;28;20691;-82
2023/09/08 08:28:43;;;;;;;0.10;0.10;;;25.10;99.90;;;;;;4983834;28;20663;-82
2023/09/08 08:31:09;;;;;;;0.10;0.10;;;25.30;99.90;;;;;;4991063;28;20251;-82
2023/09/08 08:33:34;;;;;;;0.10;0.10;;;25.30;99.90;;;;;;4984655;28;20204;-82
2023/09/08 08:36:00;;;;;;;0.10;0.10;;;24.90;99.90;;;;;;4982245;28;20204;-82
2023/09/08 08:38:26;;;;;;;0.10;0.10;;;25.00;99.90;;;;;;4980036;28;20588;-82
2023/09/08 08:40:51;;;;;;;0.10;0.10;;;25.30;99.90;;;;;;4982030;28;20196;-80
2023/09/08 08:43:17;;;;;;;0.10;0.10;;;25.50;99.90;;;;;;4982608;28;20235;-79
2023/09/08 08:45:44;;;;;;;0.10;0.10;;;25.60;99.90;;;;;;4982401;28;20257;-80
2023/09/08 08:48:13;;;;;;;0.10;0.10;;;25.60;99.90;;;;;;4989672;28;20192;-80
2023/09/08 08:50:41;;;;;;;0.10;0.10;;;25.60;99.90;;;;;;4979831;28;20232;-80
2023/09/08 08:53:08;;;;;;;0.10;0.10;;;25.50;99.90;;;;;;4982544;28;20224;-80
2023/09/08 08:55:34;;;;;;;0.10;0.10;;;25.70;99.90;;;;;;4986940;28;20186;-80
2023/09/08 08:58:03;;;;;;;0.10;0.10;;;25.50;99.90;;;;;;5004608;28;20283;-80
2023/09/08 09:00:29;;;;;;;0.10;0.10;;;25.80;99.90;;;;;;4998959;28;20202;-79
2023/09/08 09:02:57;;;;;;;0.10;0.10;;;25.70;99.90;;;;;;5002513;28;21648;-80
2023/09/08 09:05:24;;;;;;;0.10;0.10;;;25.80;99.90;;;;;;4992387;28;20219;-80
2023/09/08 09:07:50;;;;;;;0.10;0.10;;;26.10;99.90;;;;;;5000616;28;20200;-80
2023/09/08 09:10:16;;;;;;;0.10;0.10;;;26.20;99.90;;;;;;4997862;28;20273;-80
2023/09/08 09:12:41;;;;;;;0.10;0.10;;;26.30;99.90;;;;;;4984865;28;20204;-80
2023/09/08 09:15:11;;;;;;;0.10;0.10;;;26.30;99.90;;;;;;4978211;28;20212;-80
2023/09/08 09:17:37;;;;;;;0.10;0.10;;;26.10;99.90;;;;;;4981107;28;20184;-82
2023/09/08 09:20:17;;;;;;;0.10;0.10;;;26.20;99.90;;;;;;4990508;28;20546;-82
2023/09/08 09:22:43;;;;;;;0.10;0.10;;;26.10;99.90;;;;;;4983430;28;20207;-82
2023/09/08 09:25:10;;;;;;;0.10;0.10;;;26.40;99.90;;;;;;4983174;28;20204;-82
2023/09/08 09:27:38;;;;;;;0.10;0.10;;;26.20;99.90;;;;;;4983308;28;20198;-82
2023/09/08 09:30:04;;;;;;;0.10;0.10;;;26.50;99.90;;;;;;4995999;28;20184;-82
2023/09/08 09:32:31;;;;;;;0.10;0.10;;;26.70;99.90;;;;;;4982749;28;20571;-82
2023/09/08 09:35:00;;;;;;;0.10;0.10;;;26.80;99.90;;;;;;4988882;28;20238;-82
2023/09/08 09:37:26;;;;;;;0.10;0.10;;;26.00;99.90;;;;;;4989244;28;20195;-83
2023/09/08 09:39:53;;;;;;;0.10;0.10;;;26.60;99.90;;;;;;4990926;28;20184;-81
2023/09/08 09:42:20;;;;;;;0.10;0.10;;;26.80;99.90;;;;;;4989722;28;20788;-82
2023/09/08 09:44:51;;;;;;;0.10;0.10;;;27.00;99.90;;;;;;4982495;28;20227;-82
2023/09/08 09:47:17;;;;;;;0.10;0.10;;;27.40;99.90;;;;;;4981485;28;20200;-82
2023/09/08 09:49:47;;;;;;;0.10;0.10;;;27.40;99.90;;;;;;4989591;28;20238;-82
2023/09/08 09:52:19;;;;;;;0.10;0.10;;;27.10;99.90;;;;;;4982694;28;20328;-82
2023/09/08 09:54:45;;;;;;;0.10;0.10;;;27.00;99.90;;;;;;4983675;28;20183;-82
2023/09/08 09:57:14;;;;;;;0.10;0.10;;;26.80;99.90;;;;;;4982018;28;20195;-82
2023/09/08 09:59:41;;;;;;;0.10;0.10;;;27.10;99.90;;;;;;4980594;28;20187;-82
2023/09/08 10:02:14;;;;;;;0.10;0.10;;;27.10;99.90;;;;;;4987618;28;20223;-82
2023/09/08 10:04:43;;;;;;;0.10;0.10;;;27.40;99.90;;;;;;4981478;28;20183;-82
2023/09/08 10:07:09;;;;;;;0.10;0.10;;;27.40;99.90;;;;;;4987925;28;20184;-82
2023/09/08 10:09:37;;;;;;;0.10;0.10;;;26.90;99.90;;;;;;4988631;28;20187;-82
2023/09/08 10:12:04;;;;;;;0.10;0.10;;;27.20;99.90;;;;;;4980977;28;20197;-82
2023/09/08 10:14:31;;;;;;;0.10;0.10;;;27.70;99.90;;;;;;4983678;28;20245;-82
2023/09/08 10:17:00;;;;;;;0.10;0.10;;;27.50;99.90;;;;;;4982627;28;20192;-82
2023/09/08 10:19:26;;;;;;;0.10;0.10;;;28.00;99.90;;;;;;4983916;28;20331;-82
2023/09/08 10:21:59;;;;;;;0.10;0.10;;;28.20;99.90;;;;;;4987507;28;20294;-82
2023/09/08 10:24:32;;;;;;;0.10;0.10;;;28.40;99.90;;;;;;4982680;28;20524;-82
2023/09/08 10:27:10;;;;;;;0.95;0.95;;;28.70;99.90;;;;;;4981729;28;20532;-82
2023/09/08 10:29:36;;;;;;;0.10;0.10;;;28.80;99.90;;;;;;4981557;28;20179;-82
2023/09/08 10:32:03;;;;;;;0.10;0.10;;;28.90;99.90;;;;;;4982284;28;20672;-82
2023/09/08 10:34:30;;;;;;;0.10;0.10;;;28.80;99.90;;;;;;4978345;28;20185;-82
2023/09/08 10:36:56;;;;;;;0.10;0.10;;;28.70;99.90;;;;;;4980431;28;20192;-82
2023/09/08 10:39:41;;;;;;;0.10;0.10;;;29.00;99.90;;;;;;4979577;28;20707;-82
2023/09/08 10:42:20;;;;;;;0.10;0.10;;;29.10;99.90;;;;;;4980461;28;20243;-82
2023/09/08 10:44:49;;;;;;;0.10;0.10;;;28.70;99.90;;;;;;4980578;28;20196;-82
2023/09/08 10:47:18;;;;;;;0.10;0.10;;;28.60;99.90;;;;;;4978884;28;20231;-82
2023/09/08 10:49:45;;;;;;;0.10;0.10;;;28.10;99.90;;;;;;4980340;28;20180;-82
2023/09/08 10:52:12;;;;;;;0.10;0.10;;;27.80;99.90;;;;;;4993497;28;20709;-82
2023/09/08 10:54:42;;;;;;;0.10;0.10;;;28.00;99.90;;;;;;4994030;28;20197;-82
2023/09/08 10:57:24;;;;;;;0.10;0.10;;;27.90;99.90;;;;;;4980971;28;20186;-83
2023/09/08 11:00:05;;;;;;;0.10;0.10;;;28.30;99.90;;;;;;4980625;28;20646;-82
2023/09/08 11:02:38;;;;;;;0.10;0.10;;;28.60;99.90;;;;;;4987282;28;20278;-82
2023/09/08 11:05:15;;;;;;;0.10;0.10;;;28.60;99.90;;;;;;4982764;28;20195;-82
2023/09/08 11:07:42;;;;;;;0.10;0.10;;;28.60;99.90;;;;;;4980783;28;20542;-82
2023/09/08 11:10:09;;;;;;;0.10;0.10;;;28.70;99.90;;;;;;4987770;28;20194;-82
2023/09/08 11:12:35;;;;;;;0.10;0.10;;;29.00;99.90;;;;;;4977986;28;20672;-82
2023/09/08 11:15:07;;;;;;;0.10;0.10;;;29.10;99.90;;;;;;4986238;28;20192;-82
2023/09/08 11:17:34;;;;;;;0.10;0.10;;;29.40;99.90;;;;;;4980543;28;20238;-83
2023/09/08 11:20:00;;;;;;;0.10;0.10;;;29.70;99.90;;;;;;4998051;28;20189;-80
2023/09/08 11:22:26;;;;;;;0.10;0.10;;;29.50;99.90;;;;;;4983465;28;20200;-80
2023/09/08 11:24:53;;;;;;;0.10;0.10;;;29.30;99.90;;;;;;4984139;28;20203;-80
2023/09/08 11:27:20;;;;;;;0.10;0.10;;;29.40;99.90;;;;;;4980702;28;20227;-80
2023/09/08 11:29:46;;;;;;;0.10;0.10;;;29.20;99.90;;;;;;4986623;28;20183;-80
2023/09/08 11:32:12;;;;;;;0.10;0.10;;;29.30;99.90;;;;;;4984692;28;20212;-80
2023/09/08 11:34:38;;;;;;;0.10;0.10;;;29.10;99.90;;;;;;4981577;28;20191;-81
2023/09/08 11:37:16;;;;;;;0.10;0.10;;;29.30;99.90;;;;;;4979306;28;20640;-80
2023/09/08 11:39:42;;;;;;;0.10;0.10;;;29.20;99.90;;;;;;4988895;28;20851;-80
2023/09/08 11:42:09;;;;;;;0.10;0.10;;;29.10;99.90;;;;;;4980198;28;20216;-80
2023/09/08 11:44:36;;;;;;;0.20;0.20;;;29.30;99.90;;;;;;4980793;28;20181;-80
2023/09/08 11:47:03;;;;;;;0.10;0.10;;;29.50;99.90;;;;;;4980284;28;20236;-80
2023/09/08 11:49:34;;;;;;;0.10;0.10;;;29.20;99.90;;;;;;4995639;28;20209;-80
2023/09/08 11:51:59;;;;;;;0.10;0.10;;;29.60;99.90;;;;;;4980610;28;20217;-80
2023/09/08 11:54:25;;;;;;;0.10;0.10;;;29.60;99.90;;;;;;4984080;28;20191;-80
2023/09/08 11:56:51;;;;;;;0.10;0.10;;;29.70;99.90;;;;;;4982571;28;20561;-80
2023/09/08 11:59:17;;;;;;;0.10;0.10;;;29.70;99.90;;;;;;4985922;28;20278;-80
2023/09/08 12:01:43;;;;;;;0.10;0.10;;;28.80;99.90;;;;;;4982416;28;20224;-80
2023/09/08 12:04:18;;;;;;;0.10;0.10;;;29.30;99.90;;;;;;4984593;28;20203;-80
2023/09/08 12:06:43;;;;;;;0.10;0.10;;;29.40;99.90;;;;;;4990674;28;20308;-80
2023/09/08 12:09:09;;;;;;;0.10;0.10;;;29.60;99.90;;;;;;4983911;28;20648;-80
2023/09/08 12:11:35;;;;;;;0.10;0.10;;;29.80;99.90;;;;;;4985492;28;20188;-80
2023/09/08 12:14:01;;;;;;;0.10;0.10;;;29.90;99.90;;;;;;4984230;28;20188;-80
2023/09/08 12:16:26;;;;;;;0.10;0.10;;;29.80;99.90;;;;;;4985121;28;20211;-80
2023/09/08 12:18:52;;;;;;;0.10;0.10;;;29.40;99.90;;;;;;4985507;28;20188;-80
2023/09/08 12:21:17;;;;;;;0.10;0.10;;;29.50;99.90;;;;;;4985977;28;20528;-80
2023/09/08 12:23:51;;;;;;;0.10;0.10;;;29.40;99.90;;;;;;4981028;28;20216;-80
2023/09/08 12:26:17;;;;;;;0.10;0.10;;;29.80;99.90;;;;;;4983419;28;20224;-80
2023/09/08 12:28:43;;;;;;;0.10;0.10;;;29.00;99.90;;;;;;4985880;28;20179;-80
2023/09/08 12:31:09;;;;;;;0.10;0.10;;;29.20;99.90;;;;;;4984930;28;20203;-80
2023/09/08 12:33:36;;;;;;;0.10;0.10;;;29.30;99.90;;;;;;4981823;28;20232;-80
2023/09/08 12:36:15;;;;;;;0.10;0.10;;;29.20;99.90;;;;;;4985774;28;20191;-80
2023/09/08 12:38:46;;;;;;;0.10;0.10;;;29.30;99.90;;;;;;4982944;28;20263;-80
2023/09/08 12:41:11;;;;;;;0.10;0.10;;;29.50;99.90;;;;;;4986462;28;20266;-81
2023/09/08 12:43:37;;;;;;;0.10;0.10;;;29.30;99.90;;;;;;4983178;28;20306;-82
2023/09/08 12:46:02;;;;;;;0.10;0.10;;;29.60;99.90;;;;;;4998446;28;20208;-81